createdAt,value
2022-10-02T00:01:56.336Z,14.10
2022-10-02T00:04:32.289Z,14.10
2022-10-02T00:07:05.032Z,14.10
2022-10-02T00:09:53.968Z,14.10
2022-10-02T00:12:23.273Z,14.10
2022-10-02T00:14:54.127Z,14.00
2022-10-02T00:17:34.401Z,14.00
2022-10-02T00:20:01.233Z,14.00
2022-10-02T00:22:51.639Z,14.00
2022-10-02T00:25:33.167Z,14.00
2022-10-02T00:28:26.002Z,14.00
2022-10-02T00:31:19.108Z,14.00
2022-10-02T00:33:59.702Z,14.00
2022-10-02T00:36:51.482Z,14.00
2022-10-02T00:39:36.227Z,14.00
2022-10-02T00:42:18.027Z,14.00
2022-10-02T00:45:22.301Z,14.00
2022-10-02T00:48:01.138Z,14.10
2022-10-02T00:50:44.103Z,14.10
2022-10-02T00:53:56.622Z,14.10
2022-10-02T00:56:44.872Z,14.10
2022-10-02T00:59:35.664Z,14.00
2022-10-02T01:02:13.925Z,14.10
2022-10-02T01:04:41.512Z,14.00
2022-10-02T01:07:11.089Z,14.00
2022-10-02T01:09:38.877Z,14.00
2022-10-02T01:12:05.487Z,14.00
2022-10-02T01:14:37.093Z,14.00
2022-10-02T01:17:06.033Z,14.00
2022-10-02T01:19:39.487Z,14.00
2022-10-02T01:22:41.552Z,14.00
2022-10-02T01:25:08.495Z,14.00
2022-10-02T01:27:39.185Z,14.00
2022-10-02T01:30:13.883Z,13.90
2022-10-02T01:32:43.940Z,13.90
2022-10-02T01:35:10.653Z,13.90
2022-10-02T01:37:40.842Z,13.90
2022-10-02T01:40:11.579Z,13.90
2022-10-02T01:42:39.748Z,13.90
2022-10-02T01:45:08.084Z,13.80
2022-10-02T01:47:44.163Z,13.80
2022-10-02T01:50:29.674Z,13.80
2022-10-02T01:53:24.802Z,13.80
2022-10-02T01:56:33.681Z,13.80
2022-10-02T01:59:06.577Z,13.80
2022-10-02T02:01:35.934Z,13.70
2022-10-02T02:04:23.768Z,13.70
2022-10-02T02:07:05.267Z,13.70
2022-10-02T02:10:10.006Z,13.70
2022-10-02T02:12:39.523Z,13.70
2022-10-02T02:15:40.646Z,13.70
2022-10-02T02:18:11.840Z,13.60
2022-10-02T02:20:47.080Z,13.70
2022-10-02T02:23:20.101Z,13.70
2022-10-02T02:25:51.135Z,13.70
2022-10-02T02:28:21.162Z,13.70
2022-10-02T02:30:50.670Z,13.70
2022-10-02T02:33:36.140Z,13.70
2022-10-02T02:36:09.036Z,13.70
2022-10-02T02:38:40.541Z,13.60
2022-10-02T02:41:13.471Z,13.70
2022-10-02T02:44:03.435Z,13.70
2022-10-02T02:46:58.536Z,13.60
2022-10-02T02:49:29.725Z,13.60
2022-10-02T02:51:59.769Z,13.60
2022-10-02T02:54:34.157Z,13.70
2022-10-02T02:57:04.954Z,13.70
2022-10-02T02:59:35.455Z,13.70
2022-10-02T03:02:02.041Z,13.70
2022-10-02T03:04:28.813Z,13.70
2022-10-02T03:07:03.418Z,13.70
2022-10-02T03:09:33.365Z,13.80
2022-10-02T03:12:29.342Z,13.80
2022-10-02T03:15:15.427Z,13.80
2022-10-02T03:17:54.780Z,13.80
2022-10-02T03:20:52.769Z,13.80
2022-10-02T03:24:05.807Z,13.80
2022-10-02T03:26:46.969Z,13.80
2022-10-02T03:29:28.068Z,13.80
2022-10-02T03:31:55.617Z,13.80
2022-10-02T03:34:23.700Z,13.80
2022-10-02T03:36:50.632Z,13.80
2022-10-02T03:39:25.069Z,13.80
2022-10-02T03:41:53.211Z,13.80
2022-10-02T03:44:19.839Z,13.80
2022-10-02T03:46:46.511Z,13.80
2022-10-02T03:49:13.135Z,13.80
2022-10-02T03:51:39.696Z,13.80
2022-10-02T03:54:16.445Z,13.80
2022-10-02T03:56:57.558Z,13.80
2022-10-02T03:59:42.571Z,13.80
2022-10-02T04:02:29.748Z,13.80
2022-10-02T04:05:24.491Z,13.80
2022-10-02T04:07:55.947Z,13.80
2022-10-02T04:10:45.080Z,13.80
2022-10-02T04:13:39.892Z,13.80
2022-10-02T04:16:06.785Z,13.80
2022-10-02T04:18:39.571Z,13.80
2022-10-02T04:21:30.626Z,13.80
2022-10-02T04:24:28.183Z,13.70
2022-10-02T04:27:03.365Z,13.70
2022-10-02T04:29:37.349Z,13.70
2022-10-02T04:32:14.679Z,13.70
2022-10-02T04:34:42.310Z,13.70
2022-10-02T04:37:45.714Z,13.70
2022-10-02T04:40:24.675Z,13.70
2022-10-02T04:43:14.192Z,13.70
2022-10-02T04:45:55.932Z,13.70
2022-10-02T04:48:36.402Z,13.60
2022-10-02T04:51:44.781Z,13.60
2022-10-02T04:54:48.602Z,13.60
2022-10-02T04:57:21.029Z,13.60
2022-10-02T05:00:06.724Z,13.50
2022-10-02T05:03:08.671Z,13.50
2022-10-02T05:05:50.803Z,13.50
2022-10-02T05:08:40.057Z,13.50
2022-10-02T05:11:30.378Z,13.50
2022-10-02T05:14:27.974Z,13.50
2022-10-02T05:17:14.722Z,13.50
2022-10-02T05:20:06.696Z,13.50
2022-10-02T05:22:54.327Z,13.50
2022-10-02T05:25:52.352Z,13.50
2022-10-02T05:28:35.245Z,13.50
2022-10-02T05:31:44.871Z,13.50
2022-10-02T05:34:34.558Z,13.50
2022-10-02T05:37:24.243Z,13.60
2022-10-02T05:40:01.659Z,13.60
2022-10-02T05:42:32.651Z,13.60
2022-10-02T05:45:23.822Z,13.60
2022-10-02T05:47:53.705Z,13.60
2022-10-02T05:50:34.219Z,13.60
2022-10-02T05:53:03.600Z,13.60
2022-10-02T05:55:45.224Z,13.60
2022-10-02T05:58:20.916Z,13.60
2022-10-02T06:01:02.374Z,13.60
2022-10-02T06:03:57.516Z,13.60
2022-10-02T06:06:36.716Z,13.60
2022-10-02T06:09:19.565Z,13.60
2022-10-02T06:11:57.789Z,13.50
2022-10-02T06:14:41.460Z,13.60
2022-10-02T06:17:17.675Z,13.60
2022-10-02T06:20:14.489Z,13.60
2022-10-02T06:22:46.999Z,13.60
2022-10-02T06:25:37.911Z,13.60
2022-10-02T06:28:28.194Z,13.60
2022-10-02T06:31:33.625Z,13.60
2022-10-02T06:34:00.228Z,13.60
2022-10-02T06:36:42.751Z,13.60
2022-10-02T06:39:20.795Z,13.60
2022-10-02T06:42:12.330Z,13.70
2022-10-02T06:44:54.075Z,13.70
2022-10-02T06:47:34.831Z,13.70
2022-10-02T06:50:28.577Z,13.70
2022-10-02T06:53:06.923Z,13.70
2022-10-02T06:55:48.783Z,13.70
2022-10-02T06:58:57.040Z,13.80
2022-10-02T07:01:41.065Z,13.80
2022-10-02T07:04:33.207Z,13.80
2022-10-02T07:07:24.442Z,13.80
2022-10-02T07:09:56.907Z,13.90
2022-10-02T07:13:01.243Z,13.90
2022-10-02T07:15:49.986Z,13.90
2022-10-02T07:18:42.747Z,13.90
2022-10-02T07:21:17.111Z,14.00
2022-10-02T07:24:12.740Z,14.00
2022-10-02T07:27:04.771Z,14.00
2022-10-02T07:30:02.596Z,14.00
2022-10-02T07:32:52.348Z,14.10
2022-10-02T07:35:27.774Z,14.10
2022-10-02T07:38:12.970Z,14.20
2022-10-02T07:40:50.510Z,14.20
2022-10-02T07:43:58.072Z,14.20
2022-10-02T07:46:33.587Z,14.30
2022-10-02T07:49:37.418Z,14.30
2022-10-02T07:52:14.159Z,14.30
2022-10-02T07:55:01.310Z,14.40
2022-10-02T07:57:37.812Z,14.40
2022-10-02T08:00:12.921Z,14.50
2022-10-02T08:03:03.552Z,14.50
2022-10-02T08:05:38.475Z,14.60
2022-10-02T08:08:25.963Z,14.70
2022-10-02T08:10:58.888Z,14.80
2022-10-02T08:13:39.668Z,14.80
2022-10-02T08:16:08.678Z,14.90
2022-10-02T08:19:05.575Z,14.90
2022-10-02T08:21:38.652Z,15.00
2022-10-02T08:24:24.223Z,15.00
2022-10-02T08:27:06.326Z,15.10
2022-10-02T08:29:41.312Z,15.10
2022-10-02T08:32:12.059Z,15.20
2022-10-02T08:34:40.583Z,15.20
2022-10-02T08:37:25.496Z,15.20
2022-10-02T08:40:10.522Z,15.30
2022-10-02T08:43:17.131Z,15.40
2022-10-02T08:46:21.794Z,15.50
2022-10-02T08:49:12.996Z,15.60
2022-10-02T08:52:03.250Z,15.80
2022-10-02T08:55:02.382Z,16.30
2022-10-02T08:57:48.087Z,16.60
2022-10-02T09:00:39.716Z,16.70
2022-10-02T09:03:54.119Z,16.90
2022-10-02T09:06:58.120Z,17.10
2022-10-02T09:09:46.625Z,17.20
2022-10-02T09:12:58.207Z,17.40
2022-10-02T09:15:52.513Z,17.40
2022-10-02T09:18:19.119Z,17.40
2022-10-02T09:21:15.408Z,17.20
2022-10-02T09:24:04.514Z,17.00
2022-10-02T09:27:02.079Z,16.80
2022-10-02T09:30:06.424Z,16.70
2022-10-02T09:33:00.836Z,16.50
2022-10-02T09:35:51.747Z,16.50
2022-10-02T09:38:38.937Z,16.40
2022-10-02T09:41:27.821Z,16.40
2022-10-02T09:44:09.375Z,16.70
2022-10-02T09:47:13.671Z,17.20
2022-10-02T09:50:01.959Z,17.60
2022-10-02T09:52:55.266Z,17.70
2022-10-02T09:55:49.076Z,17.80
2022-10-02T09:58:36.449Z,17.90
2022-10-02T10:01:31.880Z,17.90
2022-10-02T10:04:47.602Z,17.80
2022-10-02T10:07:53.824Z,17.70
2022-10-02T10:10:29.668Z,17.50
2022-10-02T10:13:12.278Z,17.40
2022-10-02T10:16:19.061Z,17.30
2022-10-02T10:19:17.316Z,17.20
2022-10-02T10:22:00.920Z,17.20
2022-10-02T10:24:56.358Z,17.20
2022-10-02T10:28:00.262Z,17.20
2022-10-02T10:30:48.828Z,17.20
2022-10-02T10:33:35.208Z,17.30
2022-10-02T10:36:48.135Z,17.40
2022-10-02T10:39:26.801Z,17.40
2022-10-02T10:41:53.290Z,17.40
2022-10-02T10:44:47.605Z,17.40
2022-10-02T10:47:26.016Z,17.40
2022-10-02T10:50:02.172Z,17.40
2022-10-02T10:53:13.256Z,17.40
2022-10-02T10:56:00.992Z,17.50
2022-10-02T10:58:39.605Z,17.50
2022-10-02T11:01:14.207Z,17.40
2022-10-02T11:04:13.251Z,17.30
2022-10-02T11:07:16.759Z,17.20
2022-10-02T11:10:05.091Z,17.10
2022-10-02T11:12:48.835Z,17.00
2022-10-02T11:15:40.594Z,16.90
2022-10-02T11:18:19.412Z,16.90
2022-10-02T11:20:54.575Z,16.90
2022-10-02T11:24:04.771Z,17.00
2022-10-02T11:26:52.208Z,17.10
2022-10-02T11:29:46.786Z,17.30
2022-10-02T11:32:44.009Z,17.30
2022-10-02T11:35:19.577Z,17.30
2022-10-02T11:38:24.471Z,17.30
2022-10-02T11:41:20.732Z,17.30
2022-10-02T11:44:18.530Z,17.40
2022-10-02T11:47:18.417Z,17.60
2022-10-02T11:49:53.262Z,17.70
2022-10-02T11:52:48.234Z,17.70
2022-10-02T11:55:46.051Z,17.70
2022-10-02T11:58:45.563Z,17.70
2022-10-02T12:01:24.462Z,17.80
2022-10-02T12:04:28.439Z,17.90
2022-10-02T12:07:21.498Z,18.10
2022-10-02T12:10:00.369Z,18.30
2022-10-02T12:12:53.320Z,18.40
2022-10-02T12:15:43.510Z,18.60
2022-10-02T12:18:22.253Z,18.90
2022-10-02T12:21:16.404Z,19.00
2022-10-02T12:24:34.562Z,19.00
2022-10-02T12:27:13.332Z,18.90
2022-10-02T12:29:46.954Z,18.80
2022-10-02T12:32:37.433Z,18.60
2022-10-02T12:35:32.252Z,18.60
2022-10-02T12:38:10.708Z,18.50
2022-10-02T12:40:44.882Z,18.50
2022-10-02T12:43:20.637Z,18.50
2022-10-02T12:46:07.896Z,18.60
2022-10-02T12:48:35.987Z,18.70
2022-10-02T12:51:27.280Z,18.80
2022-10-02T12:54:33.247Z,18.80
2022-10-02T12:57:55.859Z,18.80
2022-10-02T13:00:44.342Z,18.70
2022-10-02T13:03:53.577Z,18.60
2022-10-02T13:06:52.159Z,18.70
2022-10-02T13:09:41.770Z,18.80
2022-10-02T13:12:26.813Z,18.90
2022-10-02T13:15:24.939Z,19.20
2022-10-02T13:18:17.108Z,19.30
2022-10-02T13:20:56.414Z,19.50
2022-10-02T13:23:59.916Z,19.70
2022-10-02T13:26:51.723Z,19.80
2022-10-02T13:29:45.026Z,19.90
2022-10-02T13:32:32.814Z,19.90
2022-10-02T13:35:14.898Z,19.90
2022-10-02T13:38:15.614Z,19.70
2022-10-02T13:41:10.938Z,19.60
2022-10-02T13:43:58.517Z,19.50
2022-10-02T13:47:02.607Z,19.30
2022-10-02T13:49:55.549Z,19.20
2022-10-02T13:52:39.520Z,19.20
2022-10-02T13:55:33.846Z,19.20
2022-10-02T13:58:06.349Z,19.30
2022-10-02T14:00:39.026Z,19.40
2022-10-02T14:03:24.833Z,19.50
2022-10-02T14:06:02.801Z,19.50
2022-10-02T14:08:29.401Z,19.50
2022-10-02T14:11:22.191Z,19.40
2022-10-02T14:14:22.515Z,19.30
2022-10-02T14:16:55.382Z,19.20
2022-10-02T14:19:59.376Z,19.20
2022-10-02T14:22:47.253Z,19.10
2022-10-02T14:25:32.746Z,19.10
2022-10-02T14:28:55.693Z,19.00
2022-10-02T14:31:56.462Z,18.90
2022-10-02T14:34:55.402Z,18.80
2022-10-02T14:37:52.832Z,18.80
2022-10-02T14:40:20.052Z,18.70
2022-10-02T14:43:24.345Z,18.60
2022-10-02T14:46:06.085Z,18.60
2022-10-02T14:49:15.504Z,18.60
2022-10-02T14:51:58.524Z,18.60
2022-10-02T14:54:46.960Z,18.60
2022-10-02T14:57:52.129Z,18.70
2022-10-02T15:00:25.620Z,18.80
2022-10-02T15:03:17.824Z,18.80
2022-10-02T15:05:56.887Z,18.90
2022-10-02T15:08:36.721Z,18.90
2022-10-02T15:11:05.316Z,18.80
2022-10-02T15:13:57.271Z,18.70
2022-10-02T15:17:00.124Z,18.70
2022-10-02T15:19:50.676Z,18.60
2022-10-02T17:43:40.364Z,15.40
2022-10-02T17:46:51.345Z,15.30
2022-10-02T18:23:50.941Z,14.70
2022-10-02T18:30:30.453Z,14.50
2022-10-02T18:33:41.542Z,14.50
2022-10-02T18:41:20.642Z,14.40
2022-10-02T18:51:49.422Z,14.30
2022-10-02T19:18:23.628Z,13.80
2022-10-02T19:20:56.149Z,13.80
2022-10-02T19:23:30.791Z,13.80
2022-10-02T19:26:20.124Z,13.80
2022-10-02T19:28:55.773Z,13.80
2022-10-02T19:31:26.831Z,13.70
2022-10-02T19:34:01.702Z,13.70
2022-10-02T19:36:33.037Z,13.70
2022-10-02T19:39:04.131Z,13.60
2022-10-02T19:41:35.319Z,13.60
2022-10-02T19:44:06.967Z,13.60
2022-10-02T19:46:50.395Z,13.60
2022-10-02T19:49:31.405Z,13.60
2022-10-02T19:51:58.167Z,13.50
2022-10-02T19:54:27.596Z,13.60
2022-10-02T19:57:10.984Z,13.50
2022-10-02T19:59:52.161Z,13.50
2022-10-02T20:02:42.399Z,13.50
2022-10-02T20:05:22.556Z,13.50
2022-10-02T20:07:52.565Z,13.50
2022-10-02T20:10:36.861Z,13.50
2022-10-02T20:13:10.155Z,13.50
2022-10-02T20:16:11.625Z,13.50
2022-10-02T20:18:38.570Z,13.40
2022-10-02T20:21:17.427Z,13.50
2022-10-02T20:23:51.828Z,13.40
2022-10-02T20:26:23.067Z,13.50
2022-10-02T20:28:55.115Z,13.40
2022-10-02T20:31:47.935Z,13.40
2022-10-02T20:34:23.548Z,13.50
2022-10-02T20:37:05.334Z,13.40
2022-10-02T20:39:38.148Z,13.40
2022-10-02T20:42:21.076Z,13.40
2022-10-02T20:44:47.603Z,13.40
2022-10-02T20:47:51.228Z,13.30
2022-10-02T20:50:27.077Z,13.40
2022-10-02T20:53:52.672Z,13.30
2022-10-02T20:56:37.175Z,13.20
2022-10-02T20:59:45.040Z,13.20
2022-10-02T21:02:48.001Z,13.20
2022-10-02T21:05:52.043Z,13.20
2022-10-02T21:08:22.564Z,13.10
2022-10-02T21:11:28.023Z,13.10
2022-10-02T21:14:00.379Z,13.10
2022-10-02T21:16:39.656Z,13.10
2022-10-02T21:19:39.796Z,13.10
2022-10-02T21:22:22.050Z,13.00
2022-10-02T21:25:12.593Z,13.10
2022-10-02T21:28:09.257Z,13.00
2022-10-02T21:31:15.627Z,13.00
2022-10-02T21:34:08.697Z,13.00
2022-10-02T21:36:57.396Z,13.00
2022-10-02T21:39:59.465Z,13.00
2022-10-02T21:42:44.709Z,13.00
2022-10-02T21:45:46.500Z,12.90
2022-10-02T21:48:31.618Z,12.90
2022-10-02T21:51:22.524Z,12.80
2022-10-02T21:54:31.144Z,12.80
2022-10-02T21:57:35.422Z,12.80
2022-10-02T22:00:26.484Z,12.80
2022-10-02T22:03:12.217Z,12.80
2022-10-02T22:05:51.168Z,12.80
2022-10-02T22:08:26.879Z,12.80
2022-10-02T22:11:12.291Z,12.70
2022-10-02T22:13:43.124Z,12.70
2022-10-02T22:16:28.706Z,12.70
2022-10-02T22:19:33.070Z,12.70
2022-10-02T22:22:18.391Z,12.70
2022-10-02T22:24:54.708Z,12.70
2022-10-02T22:27:40.972Z,12.70
2022-10-02T22:30:26.541Z,12.70
2022-10-02T22:33:12.039Z,12.70
2022-10-02T22:35:53.727Z,12.70
2022-10-02T22:38:35.252Z,12.70
2022-10-02T22:41:08.190Z,12.70
2022-10-02T22:43:46.722Z,12.70
2022-10-02T22:46:28.749Z,12.70
2022-10-02T22:49:27.076Z,12.70
2022-10-02T22:52:11.740Z,12.70
2022-10-02T22:54:49.183Z,12.70
2022-10-02T22:57:45.936Z,12.70
2022-10-02T23:00:27.354Z,12.70
2022-10-02T23:03:19.374Z,12.70
2022-10-02T23:05:52.565Z,12.70
2022-10-02T23:08:21.827Z,12.70
2022-10-02T23:10:59.442Z,12.70
2022-10-02T23:13:40.504Z,12.70
2022-10-02T23:16:22.453Z,12.60
2022-10-02T23:19:00.248Z,12.60
2022-10-02T23:21:45.645Z,12.60
2022-10-02T23:24:12.838Z,12.50
2022-10-02T23:27:02.452Z,12.50
2022-10-02T23:30:17.488Z,12.40
2022-10-02T23:33:13.532Z,12.40
2022-10-02T23:36:01.112Z,12.30
2022-10-02T23:38:36.247Z,12.30
2022-10-02T23:41:40.086Z,12.30
2022-10-02T23:44:32.116Z,12.30
2022-10-02T23:47:27.746Z,12.20
2022-10-02T23:49:55.482Z,12.20
2022-10-02T23:52:47.126Z,12.20
2022-10-02T23:55:40.150Z,12.20
2022-10-02T23:58:13.505Z,12.20
